Flight Track Log - Related Links

Times and Time Zones

All times are in EDT time to prevent confusion due to time zone crossing. See the JUS327 flight status page for this flight to view local times or setup timezone preferences in your user account.

Time Position Orientation Groundspeed Altitude Reporting Facility
EDT Latitude Longitude Course Direction KTS MPH feet Rate Location/Type
Sat 03:56:53 PM 42.2475 -83.5172 336° Northwest 147 169 1,700  Level Cleveland Center
Sat 03:57:36 PM 42.2783 -83.5356 336° Northwest 218 251 3,100 2,077 Climbing Cleveland Center
Sat 03:58:37 PM 42.2783 -83.6197 270° West 250 288 5,300 2,389 Climbing Cleveland Center
Sat 03:59:24 PM 42.2639 -83.6892 254° West 283 326 7,400 3,403 Climbing Cleveland Center
Sat 03:59:44 PM 42.2606 -83.7367 265° West 287 330 9,100 3,400 Climbing Cleveland Center
Sat 04:00:24 PM 42.2822 -83.7856 301° West 293 337 10,800 2,280 Climbing Cleveland Center
Sat 04:01:24 PM 42.3783 -83.7792 North 349 402 12,900 1,950 Climbing Cleveland Center
Sat 04:02:24 PM 42.3836 -83.6558 87° East 236 272 14,700 2,200 Climbing Cleveland Center
Sat 04:03:24 PM 42.2947 -83.6344 170° South 161 185 17,300 2,150 Climbing Cleveland Center
Sat 04:04:24 PM 42.2000 -83.6608 192° South 270 311 19,000 1,000 Climbing Cleveland Center
Sat 04:05:24 PM 42.0931 -83.6892 191° South 351 404 19,300 1,250 Climbing Cleveland Center
Sat 04:06:24 PM 41.9797 -83.7144 189° South 386 444 21,500 2,150 Climbing Cleveland Center
Sat 04:07:24 PM 41.8706 -83.7428 191° South 397 457 23,600 1,900 Climbing Cleveland Center
Sat 04:08:24 PM 41.7592 -83.7733 192° South 407 468 25,300 1,450 Climbing Cleveland Center
Sat 04:09:24 PM 41.6478 -83.8039 192° South 407 468 26,500 1,150 Climbing Cleveland Center
Sat 04:10:24 PM 41.5431 -83.8903 212° Southwest 424 488 27,600 1,300 Climbing Cleveland Center
Sat 04:11:24 PM 41.4406 -83.9792 213° Southwest 435 501 29,100 1,700 Climbing Cleveland Center
Sat 04:12:24 PM 41.3272 -84.0728 212° Southwest 441 507 31,000 1,890 Climbing Cleveland Center
Sat 04:13:50 PM 41.2014 -84.1969 217° Southwest 414 476 33,700 1,216 Climbing Chicago Center
Sat 04:14:52 PM 41.1547 -84.3464 248° West 439 505 34,000 145 Climbing Chicago Center
Sat 04:15:54 PM 41.1108 -84.5058 250° West 454 522 34,000  Level Chicago Center
Sat 04:16:56 PM 41.0761 -84.6636 254° West 449 517 34,000  Level Chicago Center
Sat 04:17:57 PM 41.0500 -84.8247 220° Southwest 446 513 34,000  Level Chicago Center
Sat 04:18:59 PM 41.0053 -84.9742 248° West 440 506 34,000  Level Chicago Center
Sat 04:20:01 PM 40.9286 -85.0906 229° Southwest 423 487 34,000  Level Chicago Center
Sat 04:21:03 PM 40.8453 -85.2014 225° Southwest 424 488 34,000  Level Chicago Center
Sat 04:22:04 PM 40.7514 -85.3447 229° Southwest 429 494 34,000  Level Chicago Center
Sat 04:23:06 PM 40.6636 -85.4553 224° Southwest 429 494 34,000  Level Chicago Center
Sat 04:24:08 PM 40.5778 -85.5631 224° Southwest 428 493 34,000  Level Chicago Center
Sat 04:25:10 PM 40.4944 -85.6772 226° Southwest 434 499 34,000  Level Chicago Center
Sat 04:26:11 PM 40.4139 -85.7914 227° Southwest 430 495 34,000  Level Chicago Center
Sat 04:27:13 PM 40.3292 -85.9044 226° Southwest 434 499 34,000  Level Chicago Center
Sat 04:28:15 PM 40.2436 -86.0161 225° Southwest 436 502 34,000  Level Chicago Center
Sat 04:29:17 PM 40.1406 -86.1492 225° Southwest 436 502 34,000  Level Chicago Center
Sat 04:30:18 PM 40.0567 -86.2594 225° Southwest 433 498 34,000  Level Chicago Center
Sat 04:31:20 PM 39.9725 -86.3708 225° Southwest 436 502 34,000  Level Chicago Center
Sat 04:32:12 PM 39.9050 -86.4597 225° Southwest 439 505 34,000  Level Indianapolis Center
Sat 04:33:14 PM 39.8033 -86.5936 225° Southwest 442 509 34,000  Level Indianapolis Center
Sat 04:34:15 PM 39.7178 -86.7033 225° Southwest 440 506 34,000  Level Indianapolis Center
Sat 04:35:17 PM 39.6297 -86.8156 224° Southwest 444 511 34,000  Level Indianapolis Center
Sat 04:36:18 PM 39.5433 -86.9272 225° Southwest 443 510 34,000  Level Indianapolis Center
Sat 04:37:19 PM 39.4556 -87.0406 225° Southwest 447 514 34,000  Level Indianapolis Center
Sat 04:38:21 PM 39.3678 -87.1519 224° Southwest 445 512 34,000  Level Indianapolis Center
Sat 04:39:22 PM 39.2622 -87.2856 224° Southwest 445 512 34,000  Level Indianapolis Center
Sat 04:40:24 PM 39.1758 -87.3978 225° Southwest 443 510 34,000  Level Indianapolis Center
Sat 04:41:25 PM 39.0933 -87.4997 224° Southwest 444 511 34,000  Level Indianapolis Center
Sat 04:42:26 PM 39.0044 -87.6097 224° Southwest 444 511 34,000  Level Indianapolis Center
Sat 04:43:28 PM 38.9178 -87.7208 225° Southwest 441 507 34,000  Level Indianapolis Center
Sat 04:44:29 PM 38.8108 -87.8536 224° Southwest 445 512 34,000  Level Indianapolis Center
Sat 04:45:18 PM 38.7389 -87.9425 224° Southwest 442 509 34,000  Level Kansas City Center
Sat 04:46:20 PM 38.6492 -88.0522 224° Southwest 445 512 34,000  Level Kansas City Center
Sat 04:47:21 PM 38.5603 -88.1614 224° Southwest 443 510 34,000  Level Kansas City Center
Sat 04:48:23 PM 38.4711 -88.2719 224° Southwest 445 512 34,000  Level Kansas City Center
Sat 04:49:25 PM 38.3819 -88.3833 224° Southwest 446 513 34,000  Level Kansas City Center
Sat 04:50:26 PM 38.2933 -88.4933 224° Southwest 446 513 34,000  Level Kansas City Center
Sat 04:51:28 PM 38.2025 -88.6008 223° Southwest 446 513 34,000  Level Kansas City Center
Sat 04:52:29 PM 38.1108 -88.7103 223° Southwest 447 514 34,000  Level Kansas City Center
Sat 04:53:31 PM 38.0169 -88.8217 223° Southwest 451 519 34,000  Level Kansas City Center
Sat 04:54:33 PM 37.9058 -88.9575 224° Southwest 458 527 34,000  Level Kansas City Center
Sat 04:55:34 PM 37.8139 -89.0694 224° Southwest 457 526 34,000  Level Kansas City Center
Sat 04:56:36 PM 37.7222 -89.1783 223° Southwest 455 524 34,000  Level Kansas City Center
Sat 04:57:37 PM 37.6300 -89.2850 223° Southwest 453 521 34,000  Level Kansas City Center
Sat 04:58:39 PM 37.5375 -89.3911 222° Southwest 452 520 34,000  Level Kansas City Center
Sat 04:59:40 PM 37.4458 -89.4964 222° Southwest 450 518 34,000  Level Kansas City Center
Sat 05:00:32 PM 37.3544 -89.6003 222° Southwest 448 516 34,000  Level Memphis Center
Sat 05:01:32 PM 37.2614 -89.7081 223° Southwest 448 516 34,000  Level Memphis Center
Sat 05:02:32 PM 37.1767 -89.8153 225° Southwest 443 510 34,000  Level Memphis Center
Sat 05:03:32 PM 37.0875 -89.9253 225° Southwest 443 510 34,000  Level Memphis Center
Sat 05:04:32 PM 36.9961 -90.0297 222° Southwest 449 517 34,000  Level Memphis Center
Sat 05:05:32 PM 36.9067 -90.1311 222° Southwest 449 517 34,000  Level Memphis Center
Sat 05:06:32 PM 36.8194 -90.2350 224° Southwest 449 517 34,000  Level Memphis Center
Sat 05:07:32 PM 36.7319 -90.3389 224° Southwest 449 517 34,000  Level Memphis Center
Sat 05:08:32 PM 36.6422 -90.4372 221° Southwest 449 517 34,000  Level Memphis Center
Sat 05:09:32 PM 36.5525 -90.5378 222° Southwest 444 511 34,000  Level Memphis Center
Sat 05:10:32 PM 36.4669 -90.6383 223° Southwest 444 511 34,000  Level Memphis Center
Sat 05:11:32 PM 36.3769 -90.7383 222° Southwest 439 505 34,000  Level Memphis Center
Sat 05:12:32 PM 36.2911 -90.8383 223° Southwest 439 505 34,000  Level Memphis Center
Sat 05:13:32 PM 36.2031 -90.9383 223° Southwest 434 499 34,000  Level Memphis Center
Sat 05:14:33 PM 36.1150 -91.0328 221° Southwest 429 494 34,000  Level Memphis Center
Sat 05:15:32 PM 36.0269 -91.1294 222° Southwest 429 494 34,000  Level Memphis Center
Sat 05:16:32 PM 35.9367 -91.2286 222° Southwest 429 494 34,000  Level Memphis Center
Sat 05:17:32 PM 35.8483 -91.3303 223° Southwest 436 502 34,000  Level Memphis Center
Sat 05:18:32 PM 35.7706 -91.4239 224° Southwest 441 507 34,000  Level Memphis Center
Sat 05:19:32 PM 35.6736 -91.5275 221° Southwest 441 507 34,000  Level Memphis Center
Sat 05:20:32 PM 35.5850 -91.6308 223° Southwest 448 516 34,000  Level Memphis Center
Sat 05:21:32 PM 35.4922 -91.7314 221° Southwest 448 516 34,000  Level Memphis Center
Sat 05:22:32 PM 35.3972 -91.8319 221° Southwest 448 516 34,000  Level Memphis Center
Sat 05:23:32 PM 35.3083 -91.9294 222° Southwest 448 516 34,000  Level Memphis Center
Sat 05:24:32 PM 35.2153 -92.0319 222° Southwest 448 516 34,000  Level Memphis Center
Sat 05:25:32 PM 35.1242 -92.1292 221° Southwest 448 516 34,000  Level Memphis Center
Sat 05:26:32 PM 35.0311 -92.2261 220° Southwest 448 516 34,000  Level Memphis Center
Sat 05:27:32 PM 34.9378 -92.3253 221° Southwest 448 516 34,000  Level Memphis Center
Sat 05:28:32 PM 34.8464 -92.4244 222° Southwest 448 516 34,000  Level Memphis Center
Sat 05:29:32 PM 34.7528 -92.5283 222° Southwest 448 516 34,000  Level Memphis Center
Sat 05:30:32 PM 34.6614 -92.6244 221° Southwest 448 516 34,000  Level Memphis Center
Sat 05:31:32 PM 34.5678 -92.7228 221° Southwest 448 516 34,000  Level Memphis Center
Sat 05:32:32 PM 34.4739 -92.8236 222° Southwest 448 516 34,000  Level Memphis Center
Sat 05:33:32 PM 34.3803 -92.9192 220° Southwest 448 516 34,000  Level Memphis Center
Sat 05:34:32 PM 34.2839 -93.0294 223° Southwest 442 509 34,000  Level Memphis Center
Sat 05:36:39 PM 34.0872 -93.2356 221° Southwest 432 497 34,000  Level Fort Worth Center
Sat 05:37:39 PM 33.9964 -93.3303 221° Southwest 437 503 34,000  Level Fort Worth Center
Sat 05:38:39 PM 33.9036 -93.4272 221° Southwest 442 509 34,000  Level Fort Worth Center
Sat 05:39:39 PM 33.8125 -93.5211 221° Southwest 442 509 34,000  Level Fort Worth Center
Sat 05:40:39 PM 33.7194 -93.6153 220° Southwest 442 509 34,000  Level Fort Worth Center
Sat 05:41:39 PM 33.6283 -93.7114 221° Southwest 442 509 34,000  Level Fort Worth Center
Sat 05:42:39 PM 33.5372 -93.8050 221° Southwest 442 509 34,000  Level Fort Worth Center
Sat 05:43:39 PM 33.4642 -93.8778 220° Southwest 442 509 34,000  Level Fort Worth Center
Sat 05:44:39 PM 33.3608 -93.9864 221° Southwest 452 520 34,000  Level Fort Worth Center
Sat 05:45:39 PM 33.2611 -94.0894 221° Southwest 437 503 34,000  Level Fort Worth Center
Sat 05:46:39 PM 33.1739 -94.1797 221° Southwest 437 503 34,000  Level Fort Worth Center
Sat 05:47:39 PM 33.0842 -94.2697 220° Southwest 430 495 34,000  Level Fort Worth Center
Sat 05:48:39 PM 32.9947 -94.3594 220° Southwest 430 495 34,000  Level Fort Worth Center
Sat 05:49:39 PM 32.9069 -94.4492 221° Southwest 425 489 34,000  Level Fort Worth Center
Sat 05:50:39 PM 32.8131 -94.5364 218° Southwest 425 489 34,000  Level Fort Worth Center
Sat 05:51:39 PM 32.7231 -94.6206 218° Southwest 425 489 34,000  Level Fort Worth Center
Sat 05:52:39 PM 32.6375 -94.7097 221° Southwest 420 483 34,000  Level Fort Worth Center
Sat 05:53:39 PM 32.5517 -94.8033 223° Southwest 420 483 34,000  Level Fort Worth Center
Sat 05:54:39 PM 32.4594 -94.8897 218° Southwest 430 495 34,000  Level Fort Worth Center
Sat 05:55:39 PM 32.3694 -94.9808 221° Southwest 430 495 34,000  Level Fort Worth Center
Sat 05:56:39 PM 32.2939 -95.0639 223° Southwest 418 481 34,000  Level Fort Worth Center
Sat 05:57:39 PM 32.2056 -95.1544 221° Southwest 423 487 34,000  Level Fort Worth Center
Sat 05:58:39 PM 32.1175 -95.2425 220° Southwest 423 487 34,000  Level Fort Worth Center
Sat 05:59:39 PM 32.0250 -95.3306 219° Southwest 423 487 34,000  Level Fort Worth Center
Sat 06:00:39 PM 31.9367 -95.4183 220° Southwest 430 495 34,000  Level Fort Worth Center
Sat 06:03:02 PM 31.7208 -95.6272 219° Southwest 423 487 34,000  Level Houston Center
Sat 06:04:03 PM 31.6303 -95.7150 220° Southwest 422 486 34,000  Level Houston Center
Sat 06:05:05 PM 31.5389 -95.8033 219° Southwest 425 489 34,000  Level Houston Center
Sat 06:06:07 PM 31.4297 -95.9094 220° Southwest 426 490 34,000  Level Houston Center
Sat 06:07:09 PM 31.3386 -95.9975 220° Southwest 425 489 34,000  Level Houston Center
Sat 06:08:10 PM 31.2497 -96.0817 219° Southwest 429 494 34,000  Level Houston Center
Sat 06:09:12 PM 31.1581 -96.1700 220° Southwest 426 490 34,000  Level Houston Center
Sat 06:10:14 PM 31.0647 -96.2592 219° Southwest 427 491 34,000  Level Houston Center
Sat 06:11:15 PM 30.9719 -96.3469 219° Southwest 426 490 34,000  Level Houston Center
Sat 06:12:17 PM 30.8792 -96.4344 219° Southwest 424 488 34,000  Level Houston Center
Sat 06:13:19 PM 30.7867 -96.5231 219° Southwest 424 488 34,000  Level Houston Center
Sat 06:14:20 PM 30.6769 -96.6242 218° Southwest 423 487 34,000  Level Houston Center
Sat 06:15:22 PM 30.5856 -96.7111 219° Southwest 420 483 34,000  Level Houston Center
Sat 06:16:24 PM 30.4933 -96.7986 219° Southwest 421 484 34,000  Level Houston Center
Sat 06:17:25 PM 30.4008 -96.8858 219° Southwest 422 486 34,000  Level Houston Center
Sat 06:18:27 PM 30.3061 -96.9686 217° Southwest 421 484 34,000  Level Houston Center
Sat 06:19:29 PM 30.2136 -97.0525 218° Southwest 417 480 34,000  Level Houston Center
Sat 06:20:30 PM 30.1244 -97.1414 221° Southwest 415 478 34,000  Level Houston Center
Sat 06:21:32 PM 30.0444 -97.2192 220° Southwest 416 479 34,000  Level Houston Center
Sat 06:22:34 PM 29.9356 -97.3183 218° Southwest 418 481 34,000  Level Houston Center
Sat 06:23:35 PM 29.8447 -97.4019 219° Southwest 419 482 34,000  Level Houston Center
Sat 06:24:37 PM 29.7539 -97.4878 219° Southwest 423 487 34,000  Level Houston Center
Sat 06:25:39 PM 29.6633 -97.5711 219° Southwest 420 483 34,000  Level Houston Center
Sat 06:26:40 PM 29.5714 -97.6547 218° Southwest 423 487 34,000  Level Houston Center
Sat 06:27:42 PM 29.4789 -97.7383 218° Southwest 424 488 34,000  Level Houston Center
Sat 06:28:44 PM 29.3703 -97.8386 219° Southwest 423 487 34,000  Level Houston Center
Sat 06:29:45 PM 29.2731 -97.9294 219° Southwest 419 482 34,000  Level Houston Center
Sat 06:30:47 PM 29.1817 -98.0125 218° Southwest 418 481 34,000  Level Houston Center
Sat 06:31:49 PM 29.0908 -98.0942 218° Southwest 415 478 34,000  Level Houston Center
Sat 06:32:50 PM 28.9931 -98.1819 218° Southwest 414 476 34,000 -98 Level Houston Center
Sat 06:33:52 PM 28.9019 -98.2642 218° Southwest 416 479 33,800 -581 Descending Houston Center
Sat 06:34:54 PM 28.8136 -98.3478 220° Southwest 414 476 32,800 -1,024 Descending Houston Center
Sat 06:35:55 PM 28.7186 -98.4325 218° Southwest 404 465 31,700 -1,024 Descending Houston Center
Sat 06:36:57 PM 28.6264 -98.5097 216° Southwest 403 464 30,700 -976 Descending Houston Center
Sat 06:37:58 PM 28.5392 -98.5883 218° Southwest 400 460 29,700 -1,756 Descending Houston Center
Sat 06:39:00 PM 28.4519 -98.6650 218° Southwest 397 457 27,100 -3,171 Descending Houston Center
Sat 06:40:01 PM 28.3514 -98.7144 203° Southwest 392 451 23,200 -3,805 Descending Houston Center
Sat 06:41:03 PM 28.2500 -98.7647 204° Southwest 397 457 19,300 -3,805 Descending Houston Center
Sat 06:42:04 PM 28.1622 -98.8264 212° Southwest 375 432 15,400 -3,659 Descending Houston Center
Sat 06:43:06 PM 28.0808 -98.8981 218° Southwest 371 427 11,800 -2,419 Descending Houston Center
Sat 06:44:08 PM 28.0153 -98.9686 224° Southwest 338 389 10,400 -1,659 Descending Houston Center
Sat 06:45:09 PM 27.9503 -99.0425 225° Southwest 300 345 8,400 -1,610 Descending Houston Center
Sat 06:46:11 PM 27.8967 -99.1014 224° Southwest 282 325 7,100 -976 Descending Houston Center
Sat 06:47:12 PM 27.8503 -99.1678 232° Southwest 275 316 6,400 -976 Descending Houston Center
Sat 06:48:14 PM 27.8061 -99.2303 231° Southwest 267 307 5,100 -1,366 Descending Houston Center
Sat 06:49:15 PM 27.7603 -99.2833 226° Southwest 253 291 3,600 -976 Descending Houston Center
Sat 06:50:17 PM 27.7189 -99.3317 226° Southwest 234 269 3,100 -488 Descending Houston Center
Sat 06:51:18 PM 27.6714 -99.3856 225° Southwest 216 249 2,600 -537 Descending Houston Center
Sat 06:52:20 PM 27.6336 -99.4261 224° Southwest 202 232 2,000 -585 Descending Houston Center
Sat 06:53:21 PM 27.5997 -99.4558 218° Southwest 175 201 1,400 -683 Descending Houston Center
Sat 06:54:23 PM 27.5639 -99.4614 188° South 145 167 600 -774 Descending Houston Center
Sat 06:56:00 PM 27.5442 -99.4616 329° Northwest  Level Estimated
Sat 07:03:00 PM 27.5442 -99.4616 329° Northwest  Level Estimated

Login

Don't have an account? Register now (free) for customized features, flight alerts, and more!